Time;durP1;ratioP1;P1;durP2;ratioP2;P2;SDS_P1;SDS_P2;PMS_P1;PMS_P2;Temp;Humidity;BMP_temperature;BMP_pressure;BME280_temperature;BME280_humidity;BME280_pressure;Samples;Min_cycle;Max_cycle;Signal;HPM_P1;HPM_P2
2022/06/01 00:00:34;;;;;;;8.30;5.22;;;;;;;;;;1899696;75;21055;-62
2022/06/01 00:03:03;;;;;;;7.15;4.67;;;;;;;;;;1899677;75;21086;-62
2022/06/01 00:05:31;;;;;;;6.55;4.65;;;;;;;;;;1899740;75;21027;-62
2022/06/01 00:08:00;;;;;;;7.45;5.10;;;;;;;;;;1899758;75;21101;-62
2022/06/01 00:10:29;;;;;;;8.23;4.90;;;;;;;;;;1899682;75;21039;-61
2022/06/01 00:12:57;;;;;;;6.83;5.30;;;;;;;;;;1899789;75;21101;-62
2022/06/01 00:15:26;;;;;;;7.20;5.03;;;;;;;;;;1899684;75;21035;-62
2022/06/01 00:17:57;;;;;;;7.30;5.20;;;;;;;;;;1926047;73;21171;-62
2022/06/01 00:20:26;;;;;;;5.33;4.83;;;;;;;;;;1928254;74;21107;-62
2022/06/01 00:22:54;;;;;;;6.28;4.78;;;;;;;;;;1928267;74;21020;-62
2022/06/01 00:25:24;;;;;;;6.22;4.80;;;;;;;;;;1928332;74;21143;-61
2022/06/01 00:27:53;;;;;;;11.28;5.30;;;;;;;;;;1928246;74;21147;-62
2022/06/01 00:30:22;;;;;;;7.97;5.42;;;;;;;;;;1928257;74;21018;-62
2022/06/01 00:32:51;;;;;;;7.05;5.85;;;;;;;;;;1928300;74;21037;-62
2022/06/01 00:35:21;;;;;;;5.92;4.70;;;;;;;;;;1928351;74;21033;-62
2022/06/01 00:37:49;;;;;;;10.38;5.60;;;;;;;;;;1928348;74;21018;-62
2022/06/01 00:40:18;;;;;;;10.30;5.08;;;;;;;;;;1928329;74;21002;-62
2022/06/01 00:42:48;;;;;;;6.33;4.83;;;;;;;;;;1928504;74;21017;-62
2022/06/01 00:45:18;;;;;;;7.78;5.35;;;;;;;;;;1928387;74;21492;-62
2022/06/01 00:47:47;;;;;;;7.10;4.75;;;;;;;;;;1928499;74;20997;-62
2022/06/01 00:50:16;;;;;;;10.08;5.40;;;;;;;;;;1928503;74;21017;-62
2022/06/01 00:52:48;;;;;;;10.28;5.35;;;;;;;;;;1928358;74;21554;-62
2022/06/01 00:55:17;;;;;;;7.85;5.03;;;;;;;;;;1928347;74;21050;-62
2022/06/01 00:57:48;;;;;;;5.90;4.67;;;;;;;;;;1928349;74;21022;-62
2022/06/01 01:00:20;;;;;;;8.98;4.70;;;;;;;;;;1928242;74;21083;-62
2022/06/01 01:02:49;;;;;;;5.92;4.90;;;;;;;;;;1928365;74;21108;-62
2022/06/01 01:05:17;;;;;;;5.80;5.20;;;;;;;;;;1928263;74;21110;-62
2022/06/01 01:07:46;;;;;;;6.00;4.72;;;;;;;;;;1928283;74;21104;-62
2022/06/01 01:10:15;;;;;;;10.28;5.22;;;;;;;;;;1928287;74;21104;-62
2022/06/01 01:12:56;;;;;;;9.40;4.42;;;;;;;;;;1928246;74;21089;-62
2022/06/01 01:15:27;;;;;;;7.65;4.72;;;;;;;;;;1928205;74;21034;-62
2022/06/01 01:17:55;;;;;;;7.22;4.50;;;;;;;;;;1926348;73;21093;-62
2022/06/01 01:20:24;;;;;;;8.58;4.97;;;;;;;;;;1899973;74;21133;-62
2022/06/01 01:22:55;;;;;;;5.95;3.85;;;;;;;;;;1899639;75;21171;-62
2022/06/01 01:25:28;;;;;;;5.00;4.50;;;;;;;;;;1898989;75;21485;-62
2022/06/01 01:27:58;;;;;;;7.58;4.30;;;;;;;;;;1899657;75;21027;-62
2022/06/01 01:30:34;;;;;;;7.37;4.53;;;;;;;;;;1899748;75;21027;-62
2022/06/01 01:33:07;;;;;;;6.87;4.67;;;;;;;;;;1899619;75;21187;-62
2022/06/01 01:35:36;;;;;;;7.05;4.70;;;;;;;;;;1898619;75;21027;-62
2022/06/01 01:38:06;;;;;;;8.60;5.45;;;;;;;;;;1899842;75;21023;-62
2022/06/01 01:40:35;;;;;;;5.47;4.80;;;;;;;;;;1899765;75;21012;-62
2022/06/01 01:43:07;;;;;;;6.90;5.10;;;;;;;;;;1899771;75;21022;-62
2022/06/01 01:45:36;;;;;;;7.05;4.72;;;;;;;;;;1899575;75;21438;-62
2022/06/01 01:48:05;;;;;;;7.30;5.25;;;;;;;;;;1899587;75;21116;-62
2022/06/01 01:50:33;;;;;;;6.62;4.90;;;;;;;;;;1899784;75;21075;-62
2022/06/01 01:53:02;;;;;;;6.67;5.10;;;;;;;;;;1899771;75;21025;-62
2022/06/01 01:55:31;;;;;;;8.93;5.22;;;;;;;;;;1899823;75;21020;-62
2022/06/01 01:58:04;;;;;;;7.90;4.80;;;;;;;;;;1899807;75;21038;-62
2022/06/01 02:00:39;;;;;;;8.83;5.25;;;;;;;;;;1899298;75;21066;-62
2022/06/01 02:03:11;;;;;;;6.90;5.00;;;;;;;;;;1898603;75;21043;-62
2022/06/01 02:08:28;;;;;;;9.43;5.28;;;;;;;;;;1899795;75;21046;-62
2022/06/01 02:13:52;;;;;;;9.03;5.10;;;;;;;;;;1899924;75;21113;-62
2022/06/01 02:16:21;;;;;;;7.87;5.47;;;;;;;;;;1899685;75;21007;-62
2022/06/01 02:18:52;;;;;;;7.92;5.03;;;;;;;;;;1899810;75;21019;-62
2022/06/01 02:21:22;;;;;;;7.40;4.85;;;;;;;;;;1923168;74;21493;-62
2022/06/01 02:23:51;;;;;;;9.93;5.20;;;;;;;;;;1928391;74;21010;-62
2022/06/01 02:26:19;;;;;;;9.83;5.28;;;;;;;;;;1928348;74;21025;-62
2022/06/01 02:28:49;;;;;;;6.90;5.05;;;;;;;;;;1928331;74;21034;-62
2022/06/01 02:31:18;;;;;;;7.37;4.85;;;;;;;;;;1928381;74;21469;-62
2022/06/01 02:33:48;;;;;;;8.45;4.47;;;;;;;;;;1928386;74;21144;-62
2022/06/01 02:36:17;;;;;;;8.78;5.05;;;;;;;;;;1928292;74;21095;-62
2022/06/01 02:38:47;;;;;;;5.20;4.70;;;;;;;;;;1928433;74;21022;-62
2022/06/01 02:44:03;;;;;;;8.73;5.33;;;;;;;;;;1928284;74;21158;-62
2022/06/01 02:46:32;;;;;;;6.30;4.85;;;;;;;;;;1928275;74;21030;-62
2022/06/01 02:49:01;;;;;;;7.22;4.60;;;;;;;;;;1928453;74;21022;-62
2022/06/01 02:51:30;;;;;;;7.80;5.10;;;;;;;;;;1928330;74;20998;-62
2022/06/01 02:53:59;;;;;;;6.87;5.42;;;;;;;;;;1928354;74;21031;-62
2022/06/01 02:56:28;;;;;;;7.08;4.95;;;;;;;;;;1928365;74;21046;-62
2022/06/01 02:58:56;;;;;;;10.68;5.40;;;;;;;;;;1928496;74;21025;-62
2022/06/01 03:01:25;;;;;;;23.50;6.75;;;;;;;;;;1928402;74;21058;-62
2022/06/01 03:03:54;;;;;;;14.07;9.75;;;;;;;;;;1928381;74;21042;-62
2022/06/01 03:06:22;;;;;;;32.78;20.55;;;;;;;;;;1928234;74;21018;-62
2022/06/01 03:08:51;;;;;;;26.35;16.27;;;;;;;;;;1928323;74;21096;-62
2022/06/01 03:11:19;;;;;;;16.10;10.68;;;;;;;;;;1928307;74;21034;-62
2022/06/01 03:13:48;;;;;;;7.87;4.72;;;;;;;;;;1928331;74;21021;-62
2022/06/01 03:16:16;;;;;;;7.95;5.05;;;;;;;;;;1928365;74;21037;-62
2022/06/01 03:18:45;;;;;;;7.35;4.28;;;;;;;;;;1928257;74;21042;-62
2022/06/01 03:21:14;;;;;;;7.15;4.65;;;;;;;;;;1911706;74;21164;-62
2022/06/01 03:23:43;;;;;;;6.58;4.25;;;;;;;;;;1899654;75;21039;-62
2022/06/01 03:26:12;;;;;;;6.87;4.65;;;;;;;;;;1899647;75;21031;-62
2022/06/01 03:28:41;;;;;;;8.73;4.72;;;;;;;;;;1899688;75;21035;-62
2022/06/01 03:33:59;;;;;;;9.18;4.33;;;;;;;;;;1856911;76;21071;-62
2022/06/01 03:36:27;;;;;;;8.28;3.92;;;;;;;;;;1856858;77;21121;-62
2022/06/01 03:38:56;;;;;;;10.90;4.40;;;;;;;;;;1856897;76;21023;-62
2022/06/01 03:41:27;;;;;;;6.97;4.50;;;;;;;;;;1856915;77;21031;-62
2022/06/01 03:46:44;;;;;;;8.25;5.20;;;;;;;;;;1856872;77;21129;-63
2022/06/01 03:49:13;;;;;;;9.00;5.17;;;;;;;;;;1856957;76;21055;-63
2022/06/01 03:51:41;;;;;;;15.58;6.70;;;;;;;;;;1856935;77;21055;-63
2022/06/01 03:54:10;;;;;;;9.48;6.83;;;;;;;;;;1856931;77;21055;-63
2022/06/01 03:56:38;;;;;;;7.62;5.72;;;;;;;;;;1856887;76;21035;-63
2022/06/01 03:59:06;;;;;;;10.05;8.00;;;;;;;;;;1857026;77;21122;-63
2022/06/01 04:01:35;;;;;;;11.12;8.65;;;;;;;;;;1856969;76;21035;-63
2022/06/01 04:04:03;;;;;;;15.18;8.45;;;;;;;;;;1856968;77;21047;-63
2022/06/01 04:06:32;;;;;;;13.15;7.78;;;;;;;;;;1856893;75;21168;-64
2022/06/01 04:09:01;;;;;;;10.20;6.40;;;;;;;;;;1856881;77;21031;-63
2022/06/01 04:11:29;;;;;;;11.65;6.03;;;;;;;;;;1856925;77;21039;-63
2022/06/01 04:13:58;;;;;;;9.78;5.72;;;;;;;;;;1856812;76;21055;-63
2022/06/01 04:16:28;;;;;;;10.82;5.55;;;;;;;;;;1856914;77;21027;-63
2022/06/01 04:18:56;;;;;;;8.93;5.55;;;;;;;;;;1856966;77;21105;-63
2022/06/01 04:21:26;;;;;;;9.35;5.42;;;;;;;;;;1856865;75;21063;-63
2022/06/01 04:23:56;;;;;;;7.67;4.95;;;;;;;;;;1856883;77;21031;-63
2022/06/01 04:26:25;;;;;;;9.28;5.42;;;;;;;;;;1856802;77;21035;-63
2022/06/01 04:28:54;;;;;;;11.93;5.28;;;;;;;;;;1856851;76;21062;-63
2022/06/01 04:31:23;;;;;;;8.93;5.10;;;;;;;;;;1856893;76;21094;-63
2022/06/01 04:33:53;;;;;;;9.23;5.75;;;;;;;;;;1877023;76;21066;-63
2022/06/01 04:36:21;;;;;;;9.23;4.80;;;;;;;;;;1881955;76;21030;-63
2022/06/01 04:38:50;;;;;;;7.15;4.92;;;;;;;;;;1881947;76;21038;-63
2022/06/01 04:41:19;;;;;;;11.65;5.92;;;;;;;;;;1882027;76;21112;-63
2022/06/01 04:43:47;;;;;;;11.12;5.87;;;;;;;;;;1881967;76;21046;-63
2022/06/01 04:46:16;;;;;;;12.30;5.22;;;;;;;;;;1881977;76;21112;-63
2022/06/01 04:48:45;;;;;;;9.58;5.17;;;;;;;;;;1881968;76;21035;-63
2022/06/01 04:51:13;;;;;;;14.25;5.05;;;;;;;;;;1882101;76;21026;-63
2022/06/01 04:53:45;;;;;;;10.43;4.83;;;;;;;;;;1881978;76;21046;-63
2022/06/01 04:56:13;;;;;;;10.05;5.40;;;;;;;;;;1882019;76;21030;-63
2022/06/01 04:58:42;;;;;;;14.85;6.70;;;;;;;;;;1882015;76;21108;-63
2022/06/01 05:01:10;;;;;;;14.55;7.25;;;;;;;;;;1882031;76;20990;-64
2022/06/01 05:03:39;;;;;;;15.95;7.60;;;;;;;;;;1882009;76;21206;-63
2022/06/01 05:06:07;;;;;;;19.27;8.18;;;;;;;;;;1881945;76;21042;-63
2022/06/01 05:08:36;;;;;;;18.07;9.50;;;;;;;;;;1881927;76;21112;-63
2022/06/01 05:11:04;;;;;;;26.30;10.98;;;;;;;;;;1881991;76;21050;-63
2022/06/01 05:13:33;;;;;;;22.58;9.78;;;;;;;;;;1882152;76;21151;-63
2022/06/01 05:16:02;;;;;;;15.30;7.35;;;;;;;;;;1881923;76;21038;-63
2022/06/01 05:18:30;;;;;;;16.27;8.78;;;;;;;;;;1881914;76;21042;-63
2022/06/01 05:20:59;;;;;;;21.30;8.20;;;;;;;;;;1881973;76;21042;-63
2022/06/01 05:23:28;;;;;;;19.27;9.25;;;;;;;;;;1882055;76;21022;-63
2022/06/01 05:25:56;;;;;;;17.05;9.55;;;;;;;;;;1881762;76;21108;-63
2022/06/01 05:28:26;;;;;;;31.17;11.53;;;;;;;;;;1881873;76;21038;-63
2022/06/01 05:30:59;;;;;;;35.08;16.05;;;;;;;;;;1881764;76;21010;-63
2022/06/01 05:33:27;;;;;;;39.40;17.40;;;;;;;;;;1885372;74;21131;-63
2022/06/01 05:35:56;;;;;;;41.15;16.42;;;;;;;;;;1890237;76;21050;-63
2022/06/01 05:38:25;;;;;;;30.97;13.90;;;;;;;;;;1890189;76;21037;-63
2022/06/01 05:40:54;;;;;;;30.17;13.93;;;;;;;;;;1890309;76;21025;-63
2022/06/01 05:43:22;;;;;;;33.63;15.03;;;;;;;;;;1890183;76;21422;-63
2022/06/01 05:45:51;;;;;;;25.90;12.85;;;;;;;;;;1890003;76;21034;-63
2022/06/01 05:48:20;;;;;;;32.15;12.05;;;;;;;;;;1890167;76;21025;-63
2022/06/01 05:50:48;;;;;;;31.42;12.13;;;;;;;;;;1890034;76;21045;-63
2022/06/01 05:53:17;;;;;;;20.65;11.15;;;;;;;;;;1890079;76;21002;-63
2022/06/01 05:55:46;;;;;;;27.62;11.78;;;;;;;;;;1890063;76;21038;-63
2022/06/01 05:58:22;;;;;;;23.07;9.98;;;;;;;;;;1890144;76;21105;-63
2022/06/01 06:00:51;;;;;;;24.82;11.53;;;;;;;;;;1890152;76;21010;-63
2022/06/01 06:03:20;;;;;;;21.65;11.50;;;;;;;;;;1890137;76;21101;-63
2022/06/01 06:08:36;;;;;;;24.18;12.50;;;;;;;;;;1890117;76;21194;-63
2022/06/01 06:11:06;;;;;;;24.55;10.72;;;;;;;;;;1890133;76;21022;-63
2022/06/01 06:13:35;;;;;;;27.07;11.63;;;;;;;;;;1890117;76;21472;-63
2022/06/01 06:16:04;;;;;;;21.87;10.50;;;;;;;;;;1890097;76;21089;-63
2022/06/01 06:18:33;;;;;;;29.92;12.60;;;;;;;;;;1890099;76;21033;-63
2022/06/01 06:21:02;;;;;;;29.80;13.78;;;;;;;;;;1890045;76;21042;-63
2022/06/01 06:23:31;;;;;;;30.85;12.45;;;;;;;;;;1890069;76;21116;-63
2022/06/01 06:26:00;;;;;;;21.45;12.10;;;;;;;;;;1890232;76;21042;-63
2022/06/01 06:28:28;;;;;;;26.55;11.83;;;;;;;;;;1890126;76;21042;-63
2022/06/01 06:30:56;;;;;;;23.10;11.90;;;;;;;;;;1890151;76;21096;-63
2022/06/01 06:33:25;;;;;;;24.25;10.43;;;;;;;;;;1891478;76;21139;-63
2022/06/01 06:35:58;;;;;;;29.32;12.23;;;;;;;;;;1896168;76;21045;-63
2022/06/01 06:38:28;;;;;;;22.77;10.85;;;;;;;;;;1895306;76;21026;-63
2022/06/01 06:40:57;;;;;;;23.35;11.08;;;;;;;;;;1896275;76;21103;-63
2022/06/01 06:43:26;;;;;;;16.02;8.95;;;;;;;;;;1896128;76;21029;-63
2022/06/01 06:45:59;;;;;;;21.73;9.25;;;;;;;;;;1896031;76;21021;-63
2022/06/01 06:48:28;;;;;;;25.70;9.33;;;;;;;;;;1896188;76;21123;-63
2022/06/01 06:50:57;;;;;;;19.30;9.75;;;;;;;;;;1896060;76;21005;-63
2022/06/01 06:53:26;;;;;;;21.35;9.28;;;;;;;;;;1896052;76;21045;-63
2022/06/01 06:55:55;;;;;;;15.08;8.40;;;;;;;;;;1896030;76;21041;-63
2022/06/01 06:58:23;;;;;;;14.75;8.08;;;;;;;;;;1896014;76;21127;-63
2022/06/01 07:00:52;;;;;;;21.62;9.83;;;;;;;;;;1896101;76;21038;-63
2022/06/01 07:03:21;;;;;;;17.90;8.85;;;;;;;;;;1896173;76;21123;-63
2022/06/01 07:08:37;;;;;;;19.80;7.97;;;;;;;;;;1896267;76;21039;-63
2022/06/01 07:11:05;;;;;;;17.37;8.33;;;;;;;;;;1896052;76;21107;-62
2022/06/01 07:13:34;;;;;;;21.23;8.23;;;;;;;;;;1896207;76;21069;-62
2022/06/01 07:16:10;;;;;;;20.37;7.00;;;;;;;;;;1896053;76;21030;-63
2022/06/01 07:18:39;;;;;;;17.80;7.10;;;;;;;;;;1896082;76;21033;-63
2022/06/01 07:21:08;;;;;;;18.65;7.15;;;;;;;;;;1896046;76;21030;-63
2022/06/01 07:23:37;;;;;;;20.02;7.50;;;;;;;;;;1896007;76;21042;-64
2022/06/01 07:26:06;;;;;;;21.57;7.60;;;;;;;;;;1896076;76;21034;-68
2022/06/01 07:28:35;;;;;;;17.25;7.70;;;;;;;;;;1894680;76;21166;-65
2022/06/01 07:31:04;;;;;;;16.55;8.15;;;;;;;;;;1895659;76;21077;-67
2022/06/01 07:33:32;;;;;;;16.10;7.17;;;;;;;;;;1894973;76;21085;-62
2022/06/01 07:36:02;;;;;;;15.63;8.53;;;;;;;;;;1889571;76;21132;-63
2022/06/01 07:44:09;;;;;;;19.02;8.73;;;;;;;;;;1889566;76;21131;-63
2022/06/01 07:46:38;;;;;;;15.88;8.00;;;;;;;;;;1889734;76;21093;-65
2022/06/01 07:49:07;;;;;;;26.55;9.80;;;;;;;;;;1889445;76;21119;-64
2022/06/01 07:51:36;;;;;;;29.77;10.00;;;;;;;;;;1889293;76;21054;-68
2022/06/01 07:54:05;;;;;;;22.82;8.08;;;;;;;;;;1889470;76;21069;-65
2022/06/01 07:56:34;;;;;;;16.90;7.58;;;;;;;;;;1889385;76;21073;-64
2022/06/01 07:59:03;;;;;;;21.37;7.85;;;;;;;;;;1889329;76;21190;-62
2022/06/01 08:01:32;;;;;;;23.95;9.50;;;;;;;;;;1889584;76;21058;-66
2022/06/01 08:04:02;;;;;;;16.42;8.43;;;;;;;;;;1889378;76;21061;-66
2022/06/01 08:06:32;;;;;;;20.00;8.30;;;;;;;;;;1889386;76;21030;-65
2022/06/01 08:09:00;;;;;;;16.62;7.67;;;;;;;;;;1889009;76;21050;-68
2022/06/01 08:14:15;;;;;;;15.63;6.22;;;;;;;;;;1889554;76;21115;-68
2022/06/01 08:16:44;;;;;;;13.22;4.80;;;;;;;;;;1889484;76;21057;-66
2022/06/01 08:19:13;;;;;;;10.40;5.62;;;;;;;;;;1889490;76;21097;-65
2022/06/01 08:21:42;;;;;;;18.52;7.03;;;;;;;;;;1889503;76;21101;-65
2022/06/01 08:24:11;;;;;;;15.40;7.12;;;;;;;;;;1889592;76;21113;-67
2022/06/01 08:26:40;;;;;;;14.47;6.75;;;;;;;;;;1889301;76;21121;-64
2022/06/01 08:29:08;;;;;;;16.73;7.03;;;;;;;;;;1889361;76;21006;-65
2022/06/01 08:31:37;;;;;;;15.05;8.73;;;;;;;;;;1889466;76;21178;-68
2022/06/01 08:34:06;;;;;;;16.80;7.22;;;;;;;;;;1889957;76;21159;-65
2022/06/01 08:36:35;;;;;;;17.23;6.42;;;;;;;;;;1895372;76;21061;-58
2022/06/01 08:39:04;;;;;;;18.10;7.15;;;;;;;;;;1895170;76;21208;-64
2022/06/01 08:41:34;;;;;;;15.72;6.37;;;;;;;;;;1895567;76;21085;-69
2022/06/01 08:44:10;;;;;;;17.73;5.90;;;;;;;;;;1895469;76;21575;-68
2022/06/01 08:46:38;;;;;;;12.70;5.67;;;;;;;;;;1893885;76;21111;-61
2022/06/01 08:49:09;;;;;;;9.28;4.80;;;;;;;;;;1895327;76;21109;-61
2022/06/01 08:51:37;;;;;;;10.55;4.42;;;;;;;;;;1895405;76;21029;-67
2022/06/01 08:54:06;;;;;;;8.18;5.00;;;;;;;;;;1895348;76;21179;-65
2022/06/01 08:56:39;;;;;;;9.35;4.37;;;;;;;;;;1895226;76;21105;-65
2022/06/01 08:59:12;;;;;;;13.75;4.75;;;;;;;;;;1894776;75;21116;-67
2022/06/01 09:01:42;;;;;;;10.23;4.10;;;;;;;;;;1893590;75;21163;-65
2022/06/01 09:04:11;;;;;;;10.15;4.22;;;;;;;;;;1891982;74;21494;-69
2022/06/01 09:06:41;;;;;;;6.92;4.17;;;;;;;;;;1895206;76;21055;-66
2022/06/01 09:09:20;;;;;;;8.00;3.90;;;;;;;;;;1895409;76;21025;-65
2022/06/01 09:11:48;;;;;;;8.78;5.28;;;;;;;;;;1894818;75;21096;-66
2022/06/01 09:14:18;;;;;;;8.33;3.80;;;;;;;;;;1894302;76;21113;-66
2022/06/01 09:16:48;;;;;;;8.40;4.20;;;;;;;;;;1890263;75;21021;-67
2022/06/01 09:19:18;;;;;;;6.90;4.00;;;;;;;;;;1900559;74;21125;-67
2022/06/01 09:24:35;;;;;;;9.03;3.75;;;;;;;;;;1890694;76;21372;-65
2022/06/01 09:27:05;;;;;;;13.18;3.83;;;;;;;;;;1890872;76;21093;-65
2022/06/01 09:29:35;;;;;;;5.03;3.52;;;;;;;;;;1890908;76;21142;-69
2022/06/01 09:32:05;;;;;;;4.67;3.40;;;;;;;;;;1890839;76;21096;-66
2022/06/01 09:34:41;;;;;;;7.03;3.20;;;;;;;;;;1888020;75;21179;-64
2022/06/01 09:37:11;;;;;;;6.65;3.20;;;;;;;;;;1882355;76;21175;-63
2022/06/01 09:39:41;;;;;;;11.50;4.00;;;;;;;;;;1882444;76;21151;-64
2022/06/01 09:42:14;;;;;;;7.85;3.87;;;;;;;;;;1881157;75;21754;-66
2022/06/01 09:44:49;;;;;;;9.75;3.55;;;;;;;;;;1882304;76;21147;-65
2022/06/01 09:47:31;;;;;;;7.33;3.60;;;;;;;;;;1882150;76;21090;-70
2022/06/01 09:49:59;;;;;;;11.33;4.28;;;;;;;;;;1882271;76;21002;-66
2022/06/01 09:52:31;;;;;;;8.80;4.25;;;;;;;;;;1882508;76;21159;-66
2022/06/01 09:55:01;;;;;;;8.73;3.60;;;;;;;;;;1882381;76;21104;-67
2022/06/01 09:57:31;;;;;;;8.85;3.55;;;;;;;;;;1881279;75;21451;-66
2022/06/01 10:08:22;;;;;;;17.23;4.58;;;;;;;;;;1882250;76;21049;-67
2022/06/01 10:11:07;;;;;;;11.08;3.42;;;;;;;;;;1882421;76;21484;-65
2022/06/01 10:13:38;;;;;;;5.85;2.87;;;;;;;;;;1879249;76;21046;-67
2022/06/01 10:16:07;;;;;;;8.70;3.67;;;;;;;;;;1882531;76;21091;-67
2022/06/01 10:18:37;;;;;;;5.08;2.95;;;;;;;;;;1880692;76;21125;-67
2022/06/01 10:21:07;;;;;;;11.55;3.85;;;;;;;;;;1882539;76;21089;-67
2022/06/01 10:23:43;;;;;;;6.65;3.45;;;;;;;;;;1880883;75;21058;-69
2022/06/01 10:26:13;;;;;;;6.62;3.45;;;;;;;;;;1882376;76;21037;-67
2022/06/01 10:28:43;;;;;;;10.68;3.85;;;;;;;;;;1882067;76;21062;-67
2022/06/01 10:31:16;;;;;;;7.72;3.55;;;;;;;;;;1882390;76;21069;-69
2022/06/01 10:33:46;;;;;;;6.40;3.58;;;;;;;;;;1882532;76;21105;-64
2022/06/01 10:36:16;;;;;;;6.37;3.20;;;;;;;;;;1882520;75;21112;-65
2022/06/01 10:38:46;;;;;;;7.37;3.83;;;;;;;;;;1882251;76;21062;-62
2022/06/01 10:41:31;;;;;;;5.10;3.33;;;;;;;;;;1880991;75;21117;-65
2022/06/01 10:44:07;;;;;;;12.07;3.60;;;;;;;;;;1882699;76;21077;-63
2022/06/01 10:46:43;;;;;;;8.60;3.55;;;;;;;;;;1881915;75;21128;-64
2022/06/01 10:49:13;;;;;;;17.12;5.45;;;;;;;;;;1882836;76;21103;-59
2022/06/01 10:51:41;;;;;;;9.13;3.35;;;;;;;;;;1883256;76;21049;-58
2022/06/01 10:54:27;;;;;;;9.00;3.80;;;;;;;;;;1883355;76;21112;-59
2022/06/01 10:56:56;;;;;;;5.65;3.58;;;;;;;;;;1880387;76;21053;-59
2022/06/01 10:59:25;;;;;;;6.60;3.40;;;;;;;;;;1883246;76;21140;-59
2022/06/01 11:02:07;;;;;;;7.50;3.47;;;;;;;;;;1883358;76;21046;-59
2022/06/01 11:04:55;;;;;;;4.28;3.30;;;;;;;;;;1818728;76;21042;-59
2022/06/01 11:07:28;;;;;;;11.70;3.65;;;;;;;;;;1882660;76;21092;-58
2022/06/01 11:10:00;;;;;;;11.90;4.20;;;;;;;;;;1883354;76;21034;-59
2022/06/01 11:12:30;;;;;;;11.43;3.65;;;;;;;;;;1882730;75;21128;-58
2022/06/01 11:15:00;;;;;;;8.73;4.10;;;;;;;;;;1882952;75;21570;-59
2022/06/01 11:17:30;;;;;;;8.88;4.10;;;;;;;;;;1883118;76;21026;-59
2022/06/01 11:20:17;;;;;;;9.83;5.12;;;;;;;;;;1882707;75;21058;-58
2022/06/01 11:23:03;;;;;;;13.32;4.00;;;;;;;;;;1883063;76;21057;-59
2022/06/01 11:25:36;;;;;;;9.40;3.83;;;;;;;;;;1883108;76;21058;-59
2022/06/01 11:28:27;;;;;;;8.65;3.70;;;;;;;;;;1827034;76;21532;-58
2022/06/01 11:30:54;;;;;;;4.37;3.15;;;;;;;;;;1883205;76;21066;-59
2022/06/01 11:33:26;;;;;;;10.15;4.22;;;;;;;;;;1882183;74;21034;-59
2022/06/01 11:35:57;;;;;;;9.10;3.47;;;;;;;;;;1883058;76;21125;-59
2022/06/01 11:38:27;;;;;;;6.75;3.67;;;;;;;;;;1883053;76;21054;-59
2022/06/01 11:40:59;;;;;;;11.55;4.22;;;;;;;;;;1883137;76;21038;-58
2022/06/01 11:43:29;;;;;;;7.40;3.83;;;;;;;;;;1883143;76;21026;-59
2022/06/01 11:46:02;;;;;;;8.23;3.67;;;;;;;;;;1881579;75;21030;-59
2022/06/01 11:48:36;;;;;;;6.72;2.87;;;;;;;;;;1883439;76;21099;-59
2022/06/01 11:51:12;;;;;;;9.88;4.42;;;;;;;;;;1883144;76;21543;-58
2022/06/01 11:53:45;;;;;;;8.05;4.08;;;;;;;;;;1883199;76;21042;-59
2022/06/01 11:56:18;;;;;;;13.20;3.98;;;;;;;;;;1883090;76;21119;-59
2022/06/01 11:58:50;;;;;;;6.45;3.55;;;;;;;;;;1883049;76;21046;-59
2022/06/01 12:01:31;;;;;;;10.43;3.80;;;;;;;;;;1882005;76;21074;-59
2022/06/01 12:04:13;;;;;;;7.78;3.77;;;;;;;;;;1818967;76;21030;-59
2022/06/01 12:06:43;;;;;;;9.00;4.03;;;;;;;;;;1883150;76;21108;-58
2022/06/01 12:09:16;;;;;;;7.72;3.92;;;;;;;;;;1883209;76;21120;-58
2022/06/01 12:11:48;;;;;;;10.00;4.00;;;;;;;;;;1882798;75;21155;-59
2022/06/01 12:14:21;;;;;;;11.00;3.95;;;;;;;;;;1883194;76;21096;-59
2022/06/01 12:17:08;;;;;;;12.63;4.40;;;;;;;;;;1883367;76;21057;-59
2022/06/01 12:19:36;;;;;;;7.62;3.45;;;;;;;;;;1883066;76;21046;-59
2022/06/01 12:28:30;;;;;;;8.90;3.67;;;;;;;;;;1883124;76;21175;-59
2022/06/01 12:30:22;;;;;;;5.58;3.30;;;;;;;;;;1883157;76;21046;-58
2022/06/01 12:33:01;;;;;;;13.88;4.55;;;;;;;;;;1883173;76;21030;-59
2022/06/01 12:35:41;;;;;;;7.95;3.70;;;;;;;;;;1883173;76;21058;-58
2022/06/01 12:38:11;;;;;;;8.23;3.25;;;;;;;;;;1882996;76;21089;-59
2022/06/01 12:40:40;;;;;;;7.35;3.77;;;;;;;;;;1883071;76;21026;-59
2022/06/01 12:43:10;;;;;;;9.73;3.83;;;;;;;;;;1883212;76;21011;-59
2022/06/01 12:45:40;;;;;;;7.33;3.85;;;;;;;;;;1879516;75;21058;-59
2022/06/01 12:48:16;;;;;;;8.78;3.90;;;;;;;;;;1883089;76;21050;-59
2022/06/01 12:50:49;;;;;;;13.50;3.55;;;;;;;;;;1882154;75;21155;-59
2022/06/01 12:53:25;;;;;;;10.72;3.47;;;;;;;;;;1883333;76;21131;-59
2022/06/01 12:56:04;;;;;;;7.15;3.20;;;;;;;;;;1883179;76;21030;-59
2022/06/01 12:58:34;;;;;;;11.65;3.98;;;;;;;;;;1882064;76;21120;-59
2022/06/01 13:01:03;;;;;;;9.70;4.15;;;;;;;;;;1883141;76;21010;-59
2022/06/01 13:03:33;;;;;;;9.85;3.85;;;;;;;;;;1883172;76;21034;-58
2022/06/01 13:06:03;;;;;;;5.35;4.03;;;;;;;;;;1883211;76;21026;-59
2022/06/01 13:08:32;;;;;;;9.53;4.05;;;;;;;;;;1883161;76;21637;-59
2022/06/01 13:11:21;;;;;;;15.25;4.60;;;;;;;;;;1883094;76;21014;-58
2022/06/01 13:13:51;;;;;;;8.50;4.03;;;;;;;;;;1883180;76;21108;-59
2022/06/01 13:16:22;;;;;;;6.12;3.55;;;;;;;;;;1883088;76;21104;-59
2022/06/01 13:18:50;;;;;;;9.55;4.20;;;;;;;;;;1882913;76;21100;-59
2022/06/01 13:21:21;;;;;;;8.85;3.47;;;;;;;;;;1883072;76;21046;-59
2022/06/01 13:24:00;;;;;;;6.87;3.55;;;;;;;;;;1882303;76;21089;-58
2022/06/01 13:26:30;;;;;;;10.45;3.70;;;;;;;;;;1883145;76;21034;-59
2022/06/01 13:29:03;;;;;;;9.13;4.50;;;;;;;;;;1883020;76;21045;-59
2022/06/01 13:31:31;;;;;;;10.78;4.15;;;;;;;;;;1858899;76;21099;-59
2022/06/01 13:34:00;;;;;;;10.35;3.45;;;;;;;;;;1883086;76;21128;-59
2022/06/01 13:36:30;;;;;;;9.85;3.87;;;;;;;;;;1883090;75;21061;-59
2022/06/01 13:39:09;;;;;;;8.25;3.70;;;;;;;;;;1882934;76;21100;-59
2022/06/01 13:41:43;;;;;;;8.75;4.12;;;;;;;;;;1882055;76;21116;-59
2022/06/01 13:44:15;;;;;;;6.62;3.47;;;;;;;;;;1881843;75;21010;-59
2022/06/01 13:46:43;;;;;;;9.28;3.90;;;;;;;;;;1882928;76;21493;-59
2022/06/01 13:49:12;;;;;;;8.18;3.72;;;;;;;;;;1883063;76;21034;-59
2022/06/01 13:51:42;;;;;;;11.73;3.83;;;;;;;;;;1881953;76;21030;-59
2022/06/01 13:54:27;;;;;;;11.65;3.75;;;;;;;;;;1882981;76;21038;-59
2022/06/01 13:57:03;;;;;;;8.78;3.65;;;;;;;;;;1883116;76;21038;-58
2022/06/01 13:59:39;;;;;;;5.53;3.45;;;;;;;;;;1883014;76;21599;-58
2022/06/01 14:02:12;;;;;;;15.43;4.90;;;;;;;;;;1883041;76;21132;-58
2022/06/01 14:04:42;;;;;;;6.58;3.35;;;;;;;;;;1882929;76;21066;-58
2022/06/01 14:07:16;;;;;;;9.03;4.22;;;;;;;;;;1883142;76;21030;-59
2022/06/01 14:09:46;;;;;;;10.10;4.08;;;;;;;;;;1882074;76;21591;-58
2022/06/01 14:12:15;;;;;;;8.40;4.08;;;;;;;;;;1883058;76;21340;-59
2022/06/01 14:14:45;;;;;;;8.38;3.47;;;;;;;;;;1883040;76;21042;-59
2022/06/01 14:17:15;;;;;;;7.92;3.83;;;;;;;;;;1883117;76;21034;-59
2022/06/01 14:19:43;;;;;;;6.92;3.33;;;;;;;;;;1882997;76;21029;-59
2022/06/01 14:22:12;;;;;;;9.15;4.03;;;;;;;;;;1883001;76;21104;-58
2022/06/01 14:30:15;;;;;;;5.30;3.30;;;;;;;;;;1882988;76;21045;-59
2022/06/01 14:32:47;;;;;;;9.95;3.87;;;;;;;;;;1882889;76;21022;-58
2022/06/01 14:35:17;;;;;;;10.50;3.92;;;;;;;;;;1883192;76;21085;-58
2022/06/01 14:37:46;;;;;;;10.08;3.60;;;;;;;;;;1883010;76;21097;-58
2022/06/01 14:40:16;;;;;;;10.75;4.28;;;;;;;;;;1883090;76;21030;-59
2022/06/01 14:42:44;;;;;;;10.72;3.62;;;;;;;;;;1883202;76;21034;-59
2022/06/01 14:45:14;;;;;;;11.53;4.30;;;;;;;;;;1882982;76;21097;-59
2022/06/01 14:47:42;;;;;;;9.25;3.62;;;;;;;;;;1883002;76;21006;-59
2022/06/01 14:50:11;;;;;;;8.98;4.03;;;;;;;;;;1883007;76;21133;-59
2022/06/01 14:52:41;;;;;;;8.85;4.12;;;;;;;;;;1883031;76;21120;-59
2022/06/01 14:55:09;;;;;;;10.90;4.17;;;;;;;;;;1882969;76;21030;-59
2022/06/01 14:57:38;;;;;;;15.20;3.87;;;;;;;;;;1883008;76;21108;-58
2022/06/01 15:00:07;;;;;;;7.03;3.85;;;;;;;;;;1883132;76;21026;-59
2022/06/01 15:02:37;;;;;;;7.87;3.67;;;;;;;;;;1883201;76;21063;-59
2022/06/01 15:05:06;;;;;;;6.33;3.30;;;;;;;;;;1883160;76;21058;-59
2022/06/01 15:07:35;;;;;;;9.50;3.80;;;;;;;;;;1883149;76;21085;-59
2022/06/01 15:10:04;;;;;;;9.65;4.47;;;;;;;;;;1883255;76;21046;-59
2022/06/01 15:12:33;;;;;;;17.32;4.17;;;;;;;;;;1883146;76;21042;-59
2022/06/01 15:15:01;;;;;;;12.30;3.47;;;;;;;;;;1883182;76;21026;-58
2022/06/01 15:17:31;;;;;;;9.23;3.87;;;;;;;;;;1883115;76;21108;-58
2022/06/01 15:19:59;;;;;;;8.60;3.35;;;;;;;;;;1883176;76;21026;-58
2022/06/01 15:22:28;;;;;;;7.72;4.05;;;;;;;;;;1883169;76;21050;-58
2022/06/01 15:24:57;;;;;;;8.68;3.87;;;;;;;;;;1883223;76;21159;-58
2022/06/01 15:27:26;;;;;;;5.00;3.70;;;;;;;;;;1883098;76;21176;-58
2022/06/01 15:41:21;;;;;;;7.20;3.67;;;;;;;;;;1898298;75;21049;-59
2022/06/01 15:43:49;;;;;;;7.42;3.98;;;;;;;;;;1898280;75;21115;-59
2022/06/01 15:46:19;;;;;;;8.63;3.40;;;;;;;;;;1898389;75;21040;-59
2022/06/01 15:48:51;;;;;;;9.20;3.42;;;;;;;;;;1897859;75;21024;-59
2022/06/01 15:51:19;;;;;;;10.75;4.12;;;;;;;;;;1898437;75;21090;-59
2022/06/01 15:53:48;;;;;;;8.45;3.75;;;;;;;;;;1898561;75;21037;-59
2022/06/01 15:56:16;;;;;;;12.88;4.20;;;;;;;;;;1898447;75;21118;-59